Terminal Aerodrome Forecast
Issued by NWS

Home | Current Version | Previous Version | Text Only | Print | Product List | Glossary On
Versions: 1 2 3 4 5 6 7 8 9 10 11 12 13 14 15 16 17 18 19 20 21 22 23 24 25 26 27 28 29
000
FTUS46 KSGX 241400 AAA
TAFSAN
TAF AMD
KSAN 241453Z 2415/2518 VRB04KT P6SM SKC
     FM242000 27008KT P6SM FEW060
     FM250130 VRB04KT P6SM FEW004 SCT060
     FM250600 17004KT 2SM BR VCFG OVC005
     FM251300 18005KT 3SM BR OVC007
     FM251700 23006KT P6SM SCT008=

USA.gov is the U.S. government's official web portal to all federal, state and local government web resources and services.